createdAt,value
2022-11-26T00:00:31.273Z,11.27
2022-11-26T00:02:59.250Z,11.11
2022-11-26T00:05:32.315Z,11.13
2022-11-26T00:08:02.863Z,11.15
2022-11-26T00:10:32.581Z,11.26
2022-11-26T00:13:00.407Z,11.16
2022-11-26T00:15:29.779Z,11.19
2022-11-26T00:17:58.112Z,11.22
2022-11-26T00:20:31.053Z,11.13
2022-11-26T00:23:03.234Z,11.07
2022-11-26T00:25:38.864Z,11.03
2022-11-26T00:28:25.895Z,10.94
2022-11-26T00:30:54.083Z,11.03
2022-11-26T00:33:21.878Z,11.03
2022-11-26T00:35:51.016Z,11.13
2022-11-26T00:38:22.009Z,10.87
2022-11-26T00:40:50.151Z,10.88
2022-11-26T00:43:18.840Z,10.96
2022-11-26T00:45:47.819Z,10.91
2022-11-26T00:48:16.290Z,10.73
2022-11-26T00:50:46.190Z,10.79
2022-11-26T00:53:16.224Z,10.77
2022-11-26T00:55:48.754Z,10.76
2022-11-26T00:58:23.935Z,10.57
2022-11-26T01:00:52.306Z,10.60
2022-11-26T01:03:20.350Z,10.51
2022-11-26T01:05:51.136Z,10.57
2022-11-26T01:08:29.900Z,10.62
2022-11-26T01:10:59.274Z,10.60
2022-11-26T01:13:27.866Z,10.61
2022-11-26T01:15:56.232Z,10.56
2022-11-26T01:18:25.447Z,10.63
2022-11-26T01:20:53.204Z,10.70
2022-11-26T01:23:21.771Z,10.62
2022-11-26T01:25:49.587Z,10.59
2022-11-26T01:28:20.392Z,10.64
2022-11-26T01:30:48.291Z,10.72
2022-11-26T01:33:16.040Z,10.77
2022-11-26T01:35:43.828Z,10.66
2022-11-26T01:38:14.408Z,10.75
2022-11-26T01:41:02.243Z,10.78
2022-11-26T01:43:37.750Z,10.77
2022-11-26T01:46:15.237Z,10.78
2022-11-26T01:48:43.854Z,10.54
2022-11-26T01:51:13.474Z,10.56
2022-11-26T01:53:49.001Z,10.68
2022-11-26T01:56:25.647Z,10.51
2022-11-26T01:58:59.628Z,10.63
2022-11-26T02:01:27.545Z,10.50
2022-11-26T02:04:01.452Z,10.55
2022-11-26T02:06:32.812Z,10.52
2022-11-26T02:09:02.761Z,10.40
2022-11-26T02:11:31.109Z,10.63
2022-11-26T02:14:04.162Z,10.63
2022-11-26T02:17:01.741Z,10.62
2022-11-26T02:19:58.400Z,10.68
2022-11-26T02:22:48.805Z,10.76
2022-11-26T02:25:20.903Z,10.71
2022-11-26T02:28:32.304Z,10.67
2022-11-26T02:31:08.457Z,10.67
2022-11-26T02:33:43.246Z,10.64
2022-11-26T02:36:16.154Z,10.66
2022-11-26T02:38:43.905Z,10.43
2022-11-26T02:41:11.667Z,10.47
2022-11-26T02:43:40.476Z,10.62
2022-11-26T02:46:13.714Z,10.64
2022-11-26T02:48:45.908Z,10.49
2022-11-26T02:51:19.059Z,10.53
2022-11-26T02:53:48.096Z,10.47
2022-11-26T02:56:20.484Z,10.50
2022-11-26T02:58:49.508Z,10.43
2022-11-26T03:01:29.151Z,10.52
2022-11-26T03:04:00.351Z,10.46
2022-11-26T03:06:32.942Z,10.44
2022-11-26T03:09:00.893Z,10.52
2022-11-26T03:11:29.195Z,10.55
2022-11-26T03:13:57.063Z,10.47
2022-11-26T03:16:26.258Z,10.51
2022-11-26T03:18:54.129Z,10.55
2022-11-26T03:21:21.841Z,10.51
2022-11-26T03:23:49.542Z,10.48
2022-11-26T03:26:17.329Z,10.53
2022-11-26T03:28:45.133Z,10.57
2022-11-26T03:31:12.892Z,10.60
2022-11-26T03:33:42.070Z,10.44
2022-11-26T03:36:10.304Z,10.39
2022-11-26T03:38:38.058Z,10.55
2022-11-26T03:41:06.088Z,10.50
2022-11-26T03:43:33.885Z,10.60
2022-11-26T03:46:01.693Z,10.63
2022-11-26T03:48:29.496Z,10.70
2022-11-26T03:50:58.580Z,10.58
2022-11-26T03:53:26.404Z,10.52
2022-11-26T03:55:54.137Z,10.51
2022-11-26T03:58:21.957Z,10.40
2022-11-26T04:00:49.681Z,10.51
2022-11-26T04:03:17.382Z,10.43
2022-11-26T04:05:45.295Z,10.27
2022-11-26T04:08:14.440Z,10.41
2022-11-26T04:10:42.191Z,10.36
2022-11-26T04:13:10.291Z,10.44
2022-11-26T04:15:38.072Z,10.48
2022-11-26T04:18:05.883Z,10.52
2022-11-26T04:20:33.632Z,10.48
2022-11-26T04:23:01.308Z,10.58
2022-11-26T04:25:30.577Z,10.54
2022-11-26T04:27:58.299Z,10.50
2022-11-26T04:30:26.220Z,10.53
2022-11-26T04:32:53.938Z,10.52
2022-11-26T04:35:21.704Z,10.14
2022-11-26T04:37:49.436Z,10.02
2022-11-26T04:40:17.319Z,10.11
2022-11-26T04:42:46.388Z,10.15
2022-11-26T04:45:14.105Z,10.31
2022-11-26T04:47:43.226Z,10.22
2022-11-26T04:50:12.113Z,10.31
2022-11-26T04:52:39.869Z,10.30
2022-11-26T04:55:08.100Z,10.38
2022-11-26T04:57:35.898Z,10.47
2022-11-26T05:00:05.973Z,10.31
2022-11-26T05:02:33.869Z,10.31
2022-11-26T05:05:01.788Z,10.34
2022-11-26T05:07:29.623Z,10.23
2022-11-26T05:09:57.383Z,10.05
2022-11-26T05:12:25.188Z,10.16
2022-11-26T05:14:53.036Z,10.04
2022-11-26T05:17:22.099Z,10.14
2022-11-26T05:19:49.990Z,10.28
2022-11-26T05:22:17.757Z,10.18
2022-11-26T05:24:45.591Z,10.18
2022-11-26T05:27:13.524Z,10.11
2022-11-26T05:29:41.389Z,10.24
2022-11-26T05:32:09.186Z,10.27
2022-11-26T05:34:38.660Z,10.31
2022-11-26T05:37:06.630Z,10.17
2022-11-26T05:39:34.411Z,10.19
2022-11-26T05:42:07.736Z,10.33
2022-11-26T05:44:37.424Z,10.41
2022-11-26T05:47:05.676Z,10.42
2022-11-26T05:49:33.858Z,10.33
2022-11-26T05:52:03.022Z,10.30
2022-11-26T05:54:30.778Z,10.28
2022-11-26T05:57:00.282Z,10.23
2022-11-26T05:59:28.795Z,10.16
2022-11-26T06:01:56.747Z,10.26
2022-11-26T06:04:25.206Z,10.36
2022-11-26T06:06:53.074Z,10.34
2022-11-26T06:09:22.399Z,10.33
2022-11-26T06:11:50.596Z,10.31
2022-11-26T06:14:18.881Z,10.21
2022-11-26T06:16:46.810Z,10.16
2022-11-26T06:19:14.645Z,10.20
2022-11-26T06:21:42.411Z,10.22
2022-11-26T06:24:10.207Z,10.37
2022-11-26T06:26:39.444Z,10.55
2022-11-26T06:29:07.194Z,10.62
2022-11-26T06:31:35.117Z,10.61
2022-11-26T06:34:03.392Z,10.62
2022-11-26T06:36:31.101Z,10.61
2022-11-26T06:38:59.020Z,10.53
2022-11-26T06:41:27.937Z,10.57
2022-11-26T06:43:57.039Z,10.52
2022-11-26T06:46:24.860Z,10.52
2022-11-26T06:48:52.701Z,10.55
2022-11-26T06:51:21.797Z,10.57
2022-11-26T06:53:49.817Z,10.57
2022-11-26T06:56:19.439Z,10.53
2022-11-26T06:58:47.630Z,10.59
2022-11-26T07:01:19.773Z,10.70
2022-11-26T07:03:48.355Z,10.84
2022-11-26T07:06:18.099Z,10.79
2022-11-26T07:08:45.932Z,10.76
2022-11-26T07:11:14.528Z,10.58
2022-11-26T07:13:42.389Z,10.71
2022-11-26T07:16:10.555Z,10.68
2022-11-26T07:18:40.095Z,10.55
2022-11-26T07:21:10.629Z,10.67
2022-11-26T07:23:39.116Z,10.67
2022-11-26T07:26:07.816Z,10.72
2022-11-26T07:28:36.187Z,10.84
2022-11-26T07:31:10.325Z,10.89
2022-11-26T07:33:42.515Z,10.67
2022-11-26T07:36:15.484Z,10.87
2022-11-26T07:38:43.393Z,10.99
2022-11-26T07:41:12.981Z,11.03
2022-11-26T07:43:42.001Z,11.02
2022-11-26T07:46:11.881Z,10.97
2022-11-26T07:48:40.325Z,10.89
2022-11-26T07:51:18.087Z,11.01
2022-11-26T07:53:46.007Z,11.11
2022-11-26T07:56:13.790Z,11.02
2022-11-26T07:58:41.730Z,10.91
2022-11-26T08:01:11.089Z,11.03
2022-11-26T08:03:40.460Z,11.02
2022-11-26T08:06:11.778Z,10.96
2022-11-26T08:08:40.380Z,10.96
2022-11-26T08:11:14.260Z,10.90
2022-11-26T08:13:42.128Z,10.99
2022-11-26T08:16:10.613Z,10.97
2022-11-26T08:18:38.472Z,10.85
2022-11-26T08:21:06.579Z,10.76
2022-11-26T08:23:36.161Z,10.89
2022-11-26T08:26:22.720Z,11.11
2022-11-26T08:28:53.426Z,11.02
2022-11-26T08:31:22.324Z,10.98
2022-11-26T08:33:50.150Z,10.90
2022-11-26T08:36:17.972Z,10.94
2022-11-26T08:38:47.345Z,11.14
2022-11-26T08:41:15.691Z,11.20
2022-11-26T08:46:31.519Z,11.18
2022-11-26T08:48:59.440Z,11.47
2022-11-26T08:51:27.439Z,11.73
2022-11-26T08:53:56.540Z,11.76
2022-11-26T08:56:24.338Z,11.84
2022-11-26T08:58:52.196Z,11.88
2022-11-26T09:01:22.265Z,12.16
2022-11-26T09:03:51.476Z,12.31
2022-11-26T09:06:20.564Z,12.17
2022-11-26T09:09:06.989Z,12.50
2022-11-26T09:11:38.338Z,12.26
2022-11-26T09:14:07.756Z,12.48
2022-11-26T09:16:35.964Z,12.62
2022-11-26T09:19:05.883Z,12.63
2022-11-26T09:21:34.928Z,12.85
2022-11-26T09:24:03.318Z,12.74
2022-11-26T09:26:32.056Z,13.04
2022-11-26T09:29:02.597Z,13.02
2022-11-26T09:31:31.019Z,12.59
2022-11-26T09:34:01.560Z,12.72
2022-11-26T09:36:29.386Z,12.91
2022-11-26T09:39:02.200Z,12.92
2022-11-26T09:41:39.452Z,13.00
2022-11-26T09:44:25.849Z,12.83
2022-11-26T09:47:12.034Z,12.83
2022-11-26T09:49:53.530Z,12.92
2022-11-26T09:52:26.052Z,13.27
2022-11-26T09:55:05.977Z,13.05
2022-11-26T09:57:42.019Z,12.92
2022-11-26T10:00:23.733Z,13.00
2022-11-26T10:02:54.048Z,13.35
2022-11-26T10:05:23.980Z,13.44
2022-11-26T10:08:03.975Z,13.58
2022-11-26T10:10:38.793Z,13.65
2022-11-26T10:13:20.057Z,13.47
2022-11-26T10:15:59.433Z,13.81
2022-11-26T10:18:36.873Z,13.80
2022-11-26T10:21:44.364Z,13.79
2022-11-26T10:24:24.229Z,14.09
2022-11-26T10:26:53.023Z,14.07
2022-11-26T10:29:24.740Z,14.29
2022-11-26T10:31:58.980Z,14.14
2022-11-26T10:34:39.368Z,13.93
2022-11-26T10:37:07.804Z,14.48
2022-11-26T10:39:35.607Z,14.33
2022-11-26T10:42:06.096Z,14.33
2022-11-26T10:44:40.429Z,14.36
2022-11-26T10:47:28.233Z,14.00
2022-11-26T10:50:39.510Z,14.27
2022-11-26T10:53:05.955Z,14.49
2022-11-26T10:55:40.704Z,14.78
2022-11-26T10:58:17.292Z,14.96
2022-11-26T11:00:55.190Z,14.69
2022-11-26T11:03:59.356Z,14.81
2022-11-26T11:06:28.271Z,14.77
2022-11-26T11:08:56.389Z,14.73
2022-11-26T11:11:26.301Z,14.59
2022-11-26T11:13:54.513Z,14.55
2022-11-26T11:16:28.518Z,14.53
2022-11-26T11:18:59.325Z,14.66
2022-11-26T11:21:34.327Z,14.84
2022-11-26T11:24:10.969Z,14.85
2022-11-26T11:26:44.453Z,14.93
2022-11-26T11:29:27.557Z,14.98
2022-11-26T11:31:56.301Z,14.92
2022-11-26T11:34:31.541Z,14.94
2022-11-26T11:37:01.059Z,15.01
2022-11-26T11:39:31.028Z,15.18
2022-11-26T11:42:00.289Z,14.98
2022-11-26T11:44:34.820Z,14.78
2022-11-26T11:47:35.656Z,14.75
2022-11-26T11:50:19.343Z,14.82
2022-11-26T11:52:54.811Z,14.74
2022-11-26T11:55:31.368Z,15.12
2022-11-26T11:58:14.575Z,15.10
2022-11-26T12:00:52.140Z,15.20
2022-11-26T12:03:47.373Z,15.22
2022-11-26T12:06:27.167Z,15.44
2022-11-26T12:09:08.835Z,15.35
2022-11-26T12:11:49.137Z,15.59
2022-11-26T12:14:21.972Z,15.67
2022-11-26T12:16:55.584Z,15.48
2022-11-26T12:19:37.157Z,15.63
2022-11-26T12:22:14.236Z,15.73
2022-11-26T12:24:46.645Z,15.78
2022-11-26T12:27:25.952Z,15.81
2022-11-26T12:29:58.867Z,15.93
2022-11-26T12:32:33.364Z,16.35
2022-11-26T12:35:06.132Z,16.26
2022-11-26T12:37:40.221Z,16.55
2022-11-26T12:40:17.238Z,16.33
2022-11-26T12:42:54.827Z,16.17
2022-11-26T12:45:34.828Z,16.13
2022-11-26T12:48:08.752Z,16.11
2022-11-26T12:50:42.933Z,16.16
2022-11-26T12:53:21.940Z,15.89
2022-11-26T12:55:59.529Z,15.60
2022-11-26T12:58:32.910Z,15.45
2022-11-26T13:01:00.540Z,15.42
2022-11-26T13:03:30.323Z,15.44
2022-11-26T13:06:04.924Z,15.31
2022-11-26T13:08:47.429Z,15.28
2022-11-26T13:11:39.196Z,15.48
2022-11-26T13:14:16.003Z,15.24
2022-11-26T13:16:53.644Z,15.51
2022-11-26T13:19:30.214Z,15.74
2022-11-26T13:22:17.751Z,15.68
2022-11-26T13:25:00.592Z,15.62
2022-11-26T13:27:50.903Z,15.70
2022-11-26T13:30:22.229Z,15.72
2022-11-26T13:33:21.851Z,15.57
2022-11-26T13:36:18.034Z,15.31
2022-11-26T13:38:56.158Z,15.23
2022-11-26T13:41:46.141Z,14.92
2022-11-26T13:44:56.343Z,15.07
2022-11-26T13:47:29.844Z,14.93
2022-11-26T13:50:02.286Z,15.01
2022-11-26T13:52:35.367Z,15.00
2022-11-26T13:55:06.836Z,15.19
2022-11-26T13:57:41.265Z,15.17
2022-11-26T14:00:11.161Z,14.98
2022-11-26T14:02:44.247Z,15.08
2022-11-26T14:05:14.661Z,15.24
2022-11-26T14:07:43.722Z,15.31
2022-11-26T14:10:41.501Z,14.83
2022-11-26T14:13:16.251Z,15.04
2022-11-26T14:16:02.422Z,15.02
2022-11-26T14:18:58.826Z,15.06
2022-11-26T14:21:26.630Z,15.01
2022-11-26T14:23:56.112Z,15.00
2022-11-26T14:26:29.090Z,14.84
2022-11-26T14:29:13.159Z,14.84
2022-11-26T14:31:45.759Z,14.72
2022-11-26T14:34:20.439Z,14.76
2022-11-26T14:36:57.341Z,14.82
2022-11-26T14:39:26.011Z,14.92
2022-11-26T14:42:05.304Z,14.70
2022-11-26T14:44:35.316Z,14.79
2022-11-26T14:47:12.266Z,14.84
2022-11-26T14:49:42.759Z,14.99
2022-11-26T14:52:17.691Z,15.05
2022-11-26T14:54:48.596Z,15.08
2022-11-26T14:57:21.395Z,15.12
2022-11-26T15:00:01.989Z,14.96
2022-11-26T15:02:31.720Z,15.29
2022-11-26T15:05:01.277Z,15.22
2022-11-26T15:07:30.732Z,15.18
2022-11-26T15:10:03.496Z,15.11
2022-11-26T15:12:31.716Z,14.80
2022-11-26T15:15:02.828Z,14.90
2022-11-26T15:17:33.364Z,14.83
2022-11-26T15:20:04.354Z,14.73
2022-11-26T15:22:35.206Z,14.79
2022-11-26T15:25:03.205Z,14.93
2022-11-26T15:27:36.420Z,14.83
2022-11-26T15:30:07.532Z,14.86
2022-11-26T15:32:35.278Z,14.82
2022-11-26T15:35:04.532Z,14.81
2022-11-26T15:37:32.296Z,14.62
2022-11-26T15:40:20.565Z,14.75
2022-11-26T15:42:49.808Z,14.56
2022-11-26T15:45:22.091Z,14.71
2022-11-26T15:47:52.711Z,14.75
2022-11-26T15:50:27.594Z,14.75
2022-11-26T15:52:59.553Z,14.67
2022-11-26T15:55:31.283Z,14.66
2022-11-26T15:58:03.678Z,14.64
2022-11-26T16:00:37.445Z,14.48
2022-11-26T16:03:26.842Z,14.43
2022-11-26T16:05:55.750Z,14.30
2022-11-26T16:08:25.992Z,14.45
2022-11-26T16:10:56.280Z,14.40
2022-11-26T16:13:28.528Z,14.44
2022-11-26T16:16:05.461Z,14.29
2022-11-26T16:18:37.295Z,14.42
2022-11-26T16:21:08.226Z,14.32
2022-11-26T16:23:36.236Z,14.40
2022-11-26T16:26:19.400Z,14.56
2022-11-26T16:28:48.360Z,14.64
2022-11-26T16:31:18.656Z,14.64
2022-11-26T16:33:46.717Z,14.47
2022-11-26T16:36:20.920Z,14.44
2022-11-26T16:38:48.954Z,14.44
2022-11-26T16:41:18.435Z,14.24
2022-11-26T16:43:46.172Z,14.37
2022-11-26T16:46:20.972Z,14.31
2022-11-26T16:48:49.211Z,14.16
2022-11-26T16:51:17.775Z,14.22
2022-11-26T16:53:45.740Z,14.15
2022-11-26T16:56:23.697Z,14.19
2022-11-26T16:58:52.404Z,14.11
2022-11-26T17:01:21.993Z,14.08
2022-11-26T17:03:49.899Z,14.20
2022-11-26T17:06:26.583Z,14.22
2022-11-26T17:08:56.871Z,14.34
2022-11-26T17:11:25.018Z,14.23
2022-11-26T17:13:53.202Z,14.23
2022-11-26T17:16:23.860Z,14.34
2022-11-26T17:18:51.950Z,14.21
2022-11-26T17:21:19.758Z,14.05
2022-11-26T17:23:47.572Z,14.00
2022-11-26T17:26:19.971Z,14.21
2022-11-26T17:28:48.115Z,13.95
2022-11-26T17:31:16.194Z,14.18
2022-11-26T17:33:45.509Z,13.85
2022-11-26T17:36:17.477Z,13.89
2022-11-26T17:38:46.331Z,14.05
2022-11-26T17:41:14.526Z,13.88
2022-11-26T17:43:43.067Z,13.69
2022-11-26T17:46:15.975Z,13.72
2022-11-26T17:48:45.479Z,13.59
2022-11-26T17:51:14.664Z,13.94
2022-11-26T17:53:43.466Z,14.04
2022-11-26T17:56:17.608Z,13.72
2022-11-26T17:58:45.728Z,13.90
2022-11-26T18:01:14.817Z,14.00
2022-11-26T18:03:42.992Z,13.91
2022-11-26T18:06:16.131Z,13.70
2022-11-26T18:08:44.031Z,14.11
2022-11-26T18:11:12.799Z,14.13
2022-11-26T18:13:40.543Z,14.22
2022-11-26T18:16:08.395Z,14.12
2022-11-26T18:18:36.144Z,14.20
2022-11-26T18:21:03.890Z,14.23
2022-11-26T18:23:33.016Z,14.13
2022-11-26T18:26:00.708Z,13.91
2022-11-26T18:28:28.692Z,14.09
2022-11-26T18:30:58.403Z,14.15
2022-11-26T18:33:26.392Z,13.75
2022-11-26T18:35:54.169Z,14.13
2022-11-26T18:38:21.844Z,14.20
2022-11-26T18:41:02.126Z,14.04
2022-11-26T18:43:29.956Z,14.05
2022-11-26T18:45:58.064Z,13.70
2022-11-26T18:48:25.844Z,13.85
2022-11-26T18:50:57.920Z,13.57
2022-11-26T18:53:26.364Z,13.95
2022-11-26T18:55:54.135Z,13.82
2022-11-26T18:58:23.549Z,14.14
2022-11-26T19:00:53.914Z,14.18
2022-11-26T19:03:22.037Z,13.87
2022-11-26T19:05:51.778Z,13.71
2022-11-26T19:08:20.252Z,13.87
2022-11-26T19:10:48.648Z,14.16
2022-11-26T19:13:16.727Z,14.10
2022-11-26T19:15:47.312Z,13.91
2022-11-26T19:18:15.783Z,13.93
2022-11-26T19:20:50.831Z,13.91
2022-11-26T19:23:24.147Z,13.93
2022-11-26T19:25:51.880Z,14.10
2022-11-26T19:28:19.689Z,13.93
2022-11-26T19:30:58.944Z,13.76
2022-11-26T19:33:26.961Z,13.98
2022-11-26T19:35:54.849Z,13.79
2022-11-26T19:38:22.800Z,13.84
2022-11-26T19:40:50.967Z,13.83
2022-11-26T19:43:18.825Z,14.04
2022-11-26T19:45:48.042Z,14.11
2022-11-26T19:48:15.775Z,14.04
2022-11-26T19:50:44.015Z,14.18
2022-11-26T19:53:11.833Z,14.02
2022-11-26T19:55:39.696Z,14.10
2022-11-26T19:58:07.359Z,13.80
2022-11-26T20:00:35.151Z,13.85
2022-11-26T20:03:04.650Z,14.02
2022-11-26T20:05:32.684Z,14.15
2022-11-26T20:08:00.515Z,13.85
2022-11-26T20:10:29.073Z,13.95
2022-11-26T20:12:56.842Z,13.96
2022-11-26T20:15:24.674Z,13.87
2022-11-26T20:17:52.448Z,13.91
2022-11-26T20:20:21.595Z,14.11
2022-11-26T20:22:49.785Z,13.95
2022-11-26T20:25:17.713Z,13.85
2022-11-26T20:27:45.675Z,13.74
2022-11-26T20:30:13.981Z,13.83
2022-11-26T20:32:41.679Z,13.84
2022-11-26T20:35:10.047Z,13.80
2022-11-26T20:37:39.190Z,13.98
2022-11-26T20:40:09.128Z,13.89
2022-11-26T20:42:37.957Z,13.99
2022-11-26T20:45:06.793Z,13.83
2022-11-26T20:47:34.565Z,13.83
2022-11-26T20:50:02.369Z,13.60
2022-11-26T20:52:30.132Z,13.23
2022-11-26T20:54:59.291Z,13.71
2022-11-26T20:57:27.047Z,13.90
2022-11-26T20:59:54.835Z,13.88
2022-11-26T21:02:22.707Z,13.62
2022-11-26T21:04:50.513Z,13.56
2022-11-26T21:07:18.393Z,13.23
2022-11-26T21:09:46.946Z,13.55
2022-11-26T21:12:16.117Z,13.61
2022-11-26T21:14:43.945Z,13.74
2022-11-26T21:17:13.827Z,13.85
2022-11-26T21:19:42.005Z,13.71
2022-11-26T21:22:09.947Z,13.83
2022-11-26T21:24:38.466Z,13.54
2022-11-26T21:27:06.317Z,13.55
2022-11-26T21:29:35.450Z,13.63
2022-11-26T21:32:03.256Z,13.62
2022-11-26T21:34:30.931Z,13.64
2022-11-26T21:36:58.657Z,13.80
2022-11-26T21:39:26.578Z,13.77
2022-11-26T21:41:55.492Z,13.80
2022-11-26T21:44:23.219Z,13.74
2022-11-26T21:46:52.340Z,13.62
2022-11-26T21:49:20.032Z,13.67
2022-11-26T21:51:47.742Z,13.55
2022-11-26T21:54:16.345Z,13.48
2022-11-26T21:56:44.091Z,13.65
2022-11-26T21:59:11.947Z,13.68
2022-11-26T22:01:40.083Z,13.83
2022-11-26T22:04:14.392Z,13.60
2022-11-26T22:06:42.709Z,13.71
2022-11-26T22:09:11.094Z,13.83
2022-11-26T22:11:41.592Z,13.90
2022-11-26T22:14:11.491Z,13.81
2022-11-26T22:16:39.269Z,13.93
2022-11-26T22:19:08.062Z,13.76
2022-11-26T22:21:39.767Z,13.80
2022-11-26T22:24:09.014Z,13.83
2022-11-26T22:26:37.478Z,13.93
2022-11-26T22:29:05.641Z,13.89
2022-11-26T22:31:35.346Z,13.86
2022-11-26T22:34:05.344Z,13.92
2022-11-26T22:36:33.944Z,13.96
2022-11-26T22:39:05.484Z,13.75
2022-11-26T22:41:33.728Z,13.79
2022-11-26T22:44:01.766Z,13.83
2022-11-26T22:46:29.914Z,13.61
2022-11-26T22:48:59.760Z,13.79
2022-11-26T22:51:29.502Z,13.77
2022-11-26T22:53:59.159Z,13.64
2022-11-26T22:56:29.358Z,13.68
2022-11-26T22:58:57.416Z,13.43
2022-11-26T23:01:27.290Z,13.62
2022-11-26T23:03:56.460Z,13.65
2022-11-26T23:06:25.863Z,13.94
2022-11-26T23:08:53.849Z,13.73
2022-11-26T23:11:23.279Z,13.99
2022-11-26T23:13:53.251Z,13.70
2022-11-26T23:16:22.733Z,13.92
2022-11-26T23:18:51.195Z,13.80
2022-11-26T23:21:21.552Z,13.79
2022-11-26T23:23:50.084Z,13.89
2022-11-26T23:26:26.523Z,13.99
2022-11-26T23:28:57.204Z,13.75
2022-11-26T23:31:26.642Z,13.89
2022-11-26T23:33:54.987Z,13.98
2022-11-26T23:36:23.408Z,13.85
2022-11-26T23:38:51.096Z,14.08
2022-11-26T23:41:19.020Z,13.92
2022-11-26T23:43:47.006Z,13.91
2022-11-26T23:46:17.689Z,14.06
2022-11-26T23:48:46.301Z,14.09
2022-11-26T23:51:15.857Z,14.16
2022-11-26T23:53:45.808Z,13.83
2022-11-26T23:56:17.040Z,13.86
2022-11-26T23:58:44.936Z,14.18
